sensor_id;sensor_type;location;lat;lon;timestamp;temperature;humidity
12315;DHT22;23886;46.614;14.276;2022-08-21T00:00:23;16.70;99.90
12315;DHT22;23886;46.614;14.276;2022-08-21T00:02:53;16.90;99.90
12315;DHT22;23886;46.614;14.276;2022-08-21T00:05:22;17.00;99.90
12315;DHT22;23886;46.614;14.276;2022-08-21T00:07:49;16.90;99.90
12315;DHT22;23886;46.614;14.276;2022-08-21T00:10:17;16.70;99.90
12315;DHT22;23886;46.614;14.276;2022-08-21T00:12:44;16.60;99.90
12315;DHT22;23886;46.614;14.276;2022-08-21T00:15:15;16.70;99.90
12315;DHT22;23886;46.614;14.276;2022-08-21T00:17:43;16.60;99.90
12315;DHT22;23886;46.614;14.276;2022-08-21T00:20:12;16.50;99.90
12315;DHT22;23886;46.614;14.276;2022-08-21T00:22:40;16.40;99.90
12315;DHT22;23886;46.614;14.276;2022-08-21T00:25:09;16.40;99.90
12315;DHT22;23886;46.614;14.276;2022-08-21T00:27:36;16.50;99.90
12315;DHT22;23886;46.614;14.276;2022-08-21T00:30:04;16.40;99.90
12315;DHT22;23886;46.614;14.276;2022-08-21T00:32:33;16.50;99.90
12315;DHT22;23886;46.614;14.276;2022-08-21T00:35:03;16.60;99.90
12315;DHT22;23886;46.614;14.276;2022-08-21T00:37:30;16.70;99.90
12315;DHT22;23886;46.614;14.276;2022-08-21T00:39:57;16.60;99.90
12315;DHT22;23886;46.614;14.276;2022-08-21T00:42:24;16.50;99.90
12315;DHT22;23886;46.614;14.276;2022-08-21T00:44:51;16.60;99.90
12315;DHT22;23886;46.614;14.276;2022-08-21T00:47:19;16.70;99.90
12315;DHT22;23886;46.614;14.276;2022-08-21T00:49:48;16.80;99.90
12315;DHT22;23886;46.614;14.276;2022-08-21T00:52:18;16.80;99.90
12315;DHT22;23886;46.614;14.276;2022-08-21T00:54:47;16.60;99.90
12315;DHT22;23886;46.614;14.276;2022-08-21T00:57:16;16.50;99.90
12315;DHT22;23886;46.614;14.276;2022-08-21T00:59:46;16.50;99.90
12315;DHT22;23886;46.614;14.276;2022-08-21T01:02:15;16.50;99.90
12315;DHT22;23886;46.614;14.276;2022-08-21T01:04:42;16.40;99.90
12315;DHT22;23886;46.614;14.276;2022-08-21T01:07:10;16.40;99.90
12315;DHT22;23886;46.614;14.276;2022-08-21T01:09:38;16.20;99.90
12315;DHT22;23886;46.614;14.276;2022-08-21T01:12:06;16.20;99.90
12315;DHT22;23886;46.614;14.276;2022-08-21T01:14:33;16.20;99.90
12315;DHT22;23886;46.614;14.276;2022-08-21T01:17:01;16.20;99.90
12315;DHT22;23886;46.614;14.276;2022-08-21T01:19:30;16.30;99.90
12315;DHT22;23886;46.614;14.276;2022-08-21T01:21:58;16.30;99.90
12315;DHT22;23886;46.614;14.276;2022-08-21T01:24:26;16.30;99.90
12315;DHT22;23886;46.614;14.276;2022-08-21T01:26:53;16.30;99.90
12315;DHT22;23886;46.614;14.276;2022-08-21T01:29:29;16.40;99.90
12315;DHT22;23886;46.614;14.276;2022-08-21T01:31:57;16.50;99.90
12315;DHT22;23886;46.614;14.276;2022-08-21T01:34:25;16.30;99.90
12315;DHT22;23886;46.614;14.276;2022-08-21T01:36:52;16.30;99.90
12315;DHT22;23886;46.614;14.276;2022-08-21T01:39:20;16.30;99.90
12315;DHT22;23886;46.614;14.276;2022-08-21T01:41:47;16.20;99.90
12315;DHT22;23886;46.614;14.276;2022-08-21T01:44:14;16.20;99.90
12315;DHT22;23886;46.614;14.276;2022-08-21T01:46:41;16.40;99.90
12315;DHT22;23886;46.614;14.276;2022-08-21T01:49:08;16.20;99.90
12315;DHT22;23886;46.614;14.276;2022-08-21T01:51:35;16.20;99.90
12315;DHT22;23886;46.614;14.276;2022-08-21T01:54:02;16.20;99.90
12315;DHT22;23886;46.614;14.276;2022-08-21T01:56:36;16.20;99.90
12315;DHT22;23886;46.614;14.276;2022-08-21T01:59:04;16.30;99.90
12315;DHT22;23886;46.614;14.276;2022-08-21T02:01:31;16.40;99.90
12315;DHT22;23886;46.614;14.276;2022-08-21T02:03:58;16.40;99.90
12315;DHT22;23886;46.614;14.276;2022-08-21T02:06:25;16.20;99.90
12315;DHT22;23886;46.614;14.276;2022-08-21T02:08:53;16.20;99.90
12315;DHT22;23886;46.614;14.276;2022-08-21T02:11:20;16.00;99.90
12315;DHT22;23886;46.614;14.276;2022-08-21T02:13:49;16.00;99.90
12315;DHT22;23886;46.614;14.276;2022-08-21T02:16:16;16.10;99.90
12315;DHT22;23886;46.614;14.276;2022-08-21T02:18:43;16.00;99.90
12315;DHT22;23886;46.614;14.276;2022-08-21T02:21:10;16.10;99.90
12315;DHT22;23886;46.614;14.276;2022-08-21T02:23:37;16.00;99.90
12315;DHT22;23886;46.614;14.276;2022-08-21T02:26:06;15.90;99.90
12315;DHT22;23886;46.614;14.276;2022-08-21T02:28:34;15.80;99.90
12315;DHT22;23886;46.614;14.276;2022-08-21T02:31:04;15.90;99.90
12315;DHT22;23886;46.614;14.276;2022-08-21T02:33:31;16.00;99.90
12315;DHT22;23886;46.614;14.276;2022-08-21T02:35:59;16.10;99.90
12315;DHT22;23886;46.614;14.276;2022-08-21T02:38:27;16.20;99.90
12315;DHT22;23886;46.614;14.276;2022-08-21T02:40:56;16.30;99.90
12315;DHT22;23886;46.614;14.276;2022-08-21T02:43:25;16.40;99.90
12315;DHT22;23886;46.614;14.276;2022-08-21T02:45:53;16.50;99.90
12315;DHT22;23886;46.614;14.276;2022-08-21T02:48:25;16.40;99.90
12315;DHT22;23886;46.614;14.276;2022-08-21T02:50:55;16.40;99.90
12315;DHT22;23886;46.614;14.276;2022-08-21T02:53:23;16.30;99.90
12315;DHT22;23886;46.614;14.276;2022-08-21T02:55:51;16.30;99.90
12315;DHT22;23886;46.614;14.276;2022-08-21T02:58:22;16.20;99.90
12315;DHT22;23886;46.614;14.276;2022-08-21T03:00:50;16.30;99.90
12315;DHT22;23886;46.614;14.276;2022-08-21T03:03:18;16.20;99.90
12315;DHT22;23886;46.614;14.276;2022-08-21T03:05:48;16.20;99.90
12315;DHT22;23886;46.614;14.276;2022-08-21T03:08:16;16.10;99.90
12315;DHT22;23886;46.614;14.276;2022-08-21T03:10:47;16.10;99.90
12315;DHT22;23886;46.614;14.276;2022-08-21T03:13:16;15.90;99.90
12315;DHT22;23886;46.614;14.276;2022-08-21T03:15:43;16.10;99.90
12315;DHT22;23886;46.614;14.276;2022-08-21T03:18:11;16.20;99.90
12315;DHT22;23886;46.614;14.276;2022-08-21T03:20:39;16.00;99.90
12315;DHT22;23886;46.614;14.276;2022-08-21T03:23:09;15.80;99.90
12315;DHT22;23886;46.614;14.276;2022-08-21T03:25:36;15.80;99.90
12315;DHT22;23886;46.614;14.276;2022-08-21T03:28:05;15.80;99.90
12315;DHT22;23886;46.614;14.276;2022-08-21T03:30:33;15.80;99.90
12315;DHT22;23886;46.614;14.276;2022-08-21T03:33:00;15.90;99.90
12315;DHT22;23886;46.614;14.276;2022-08-21T03:35:28;16.00;99.90
12315;DHT22;23886;46.614;14.276;2022-08-21T03:37:55;16.00;99.90
12315;DHT22;23886;46.614;14.276;2022-08-21T03:40:24;16.00;99.90
12315;DHT22;23886;46.614;14.276;2022-08-21T03:42:52;16.10;99.90
12315;DHT22;23886;46.614;14.276;2022-08-21T03:45:19;16.20;99.90
12315;DHT22;23886;46.614;14.276;2022-08-21T03:47:54;16.20;99.90
12315;DHT22;23886;46.614;14.276;2022-08-21T03:50:23;16.30;99.90
12315;DHT22;23886;46.614;14.276;2022-08-21T03:52:50;16.20;99.90
12315;DHT22;23886;46.614;14.276;2022-08-21T03:55:17;16.30;99.90
12315;DHT22;23886;46.614;14.276;2022-08-21T03:57:46;16.30;99.90
12315;DHT22;23886;46.614;14.276;2022-08-21T04:00:14;16.20;99.90
12315;DHT22;23886;46.614;14.276;2022-08-21T04:02:42;16.10;99.90
12315;DHT22;23886;46.614;14.276;2022-08-21T04:05:12;16.00;99.90
12315;DHT22;23886;46.614;14.276;2022-08-21T04:07:53;16.10;99.90
12315;DHT22;23886;46.614;14.276;2022-08-21T04:10:20;16.00;99.90
12315;DHT22;23886;46.614;14.276;2022-08-21T04:12:49;16.10;99.90
12315;DHT22;23886;46.614;14.276;2022-08-21T04:15:16;16.10;99.90
12315;DHT22;23886;46.614;14.276;2022-08-21T04:17:43;16.10;99.90
12315;DHT22;23886;46.614;14.276;2022-08-21T04:20:10;16.00;99.90
12315;DHT22;23886;46.614;14.276;2022-08-21T04:22:38;16.10;99.90
12315;DHT22;23886;46.614;14.276;2022-08-21T04:25:06;16.10;99.90
12315;DHT22;23886;46.614;14.276;2022-08-21T04:27:33;16.10;99.90
12315;DHT22;23886;46.614;14.276;2022-08-21T04:30:03;16.00;99.90
12315;DHT22;23886;46.614;14.276;2022-08-21T04:32:30;16.10;99.90
12315;DHT22;23886;46.614;14.276;2022-08-21T04:35:02;16.20;99.90
12315;DHT22;23886;46.614;14.276;2022-08-21T04:37:30;16.20;99.90
12315;DHT22;23886;46.614;14.276;2022-08-21T04:39:57;16.30;99.90
12315;DHT22;23886;46.614;14.276;2022-08-21T04:42:26;16.20;99.90
12315;DHT22;23886;46.614;14.276;2022-08-21T04:44:54;16.20;99.90
12315;DHT22;23886;46.614;14.276;2022-08-21T04:47:23;16.20;99.90
12315;DHT22;23886;46.614;14.276;2022-08-21T04:49:50;16.30;99.90
12315;DHT22;23886;46.614;14.276;2022-08-21T04:52:20;16.40;99.90
12315;DHT22;23886;46.614;14.276;2022-08-21T04:54:49;16.40;99.90
12315;DHT22;23886;46.614;14.276;2022-08-21T04:57:17;16.40;99.90
12315;DHT22;23886;46.614;14.276;2022-08-21T04:59:47;16.50;99.90
12315;DHT22;23886;46.614;14.276;2022-08-21T05:02:15;16.60;99.90
12315;DHT22;23886;46.614;14.276;2022-08-21T05:04:46;16.50;99.90
12315;DHT22;23886;46.614;14.276;2022-08-21T05:07:27;16.80;99.90
12315;DHT22;23886;46.614;14.276;2022-08-21T05:09:56;16.80;99.90
12315;DHT22;23886;46.614;14.276;2022-08-21T05:12:23;16.80;99.90
12315;DHT22;23886;46.614;14.276;2022-08-21T05:14:50;17.00;99.90
12315;DHT22;23886;46.614;14.276;2022-08-21T05:17:17;17.10;99.90
12315;DHT22;23886;46.614;14.276;2022-08-21T05:19:46;17.20;99.90
12315;DHT22;23886;46.614;14.276;2022-08-21T05:22:19;17.20;99.90
12315;DHT22;23886;46.614;14.276;2022-08-21T05:24:46;17.20;99.90
12315;DHT22;23886;46.614;14.276;2022-08-21T05:27:13;17.10;99.90
12315;DHT22;23886;46.614;14.276;2022-08-21T05:29:40;17.20;99.90
12315;DHT22;23886;46.614;14.276;2022-08-21T05:32:09;17.40;99.90
12315;DHT22;23886;46.614;14.276;2022-08-21T05:34:36;17.30;99.90
12315;DHT22;23886;46.614;14.276;2022-08-21T05:37:05;17.30;99.90
12315;DHT22;23886;46.614;14.276;2022-08-21T05:39:32;17.30;99.90
12315;DHT22;23886;46.614;14.276;2022-08-21T05:41:59;17.40;99.90
12315;DHT22;23886;46.614;14.276;2022-08-21T05:44:26;17.30;99.90
12315;DHT22;23886;46.614;14.276;2022-08-21T05:46:53;17.30;99.90
12315;DHT22;23886;46.614;14.276;2022-08-21T05:49:20;17.40;99.90
12315;DHT22;23886;46.614;14.276;2022-08-21T05:51:47;17.40;99.90
12315;DHT22;23886;46.614;14.276;2022-08-21T05:54:16;17.30;99.90
12315;DHT22;23886;46.614;14.276;2022-08-21T05:56:43;17.20;99.90
12315;DHT22;23886;46.614;14.276;2022-08-21T05:59:10;17.50;99.90
12315;DHT22;23886;46.614;14.276;2022-08-21T06:01:39;17.50;99.90
12315;DHT22;23886;46.614;14.276;2022-08-21T06:04:07;17.50;99.90
12315;DHT22;23886;46.614;14.276;2022-08-21T06:06:34;17.60;99.90
12315;DHT22;23886;46.614;14.276;2022-08-21T06:09:02;17.70;99.90
12315;DHT22;23886;46.614;14.276;2022-08-21T06:11:31;18.00;99.90
12315;DHT22;23886;46.614;14.276;2022-08-21T06:13:59;18.30;99.90
12315;DHT22;23886;46.614;14.276;2022-08-21T06:16:27;18.50;99.90
12315;DHT22;23886;46.614;14.276;2022-08-21T06:18:54;18.60;99.90
12315;DHT22;23886;46.614;14.276;2022-08-21T06:21:21;18.70;99.90
12315;DHT22;23886;46.614;14.276;2022-08-21T06:23:48;18.60;99.90
12315;DHT22;23886;46.614;14.276;2022-08-21T06:26:15;18.70;99.90
12315;DHT22;23886;46.614;14.276;2022-08-21T06:28:44;18.80;99.90
12315;DHT22;23886;46.614;14.276;2022-08-21T06:31:13;18.90;99.90
12315;DHT22;23886;46.614;14.276;2022-08-21T06:33:40;19.00;99.90
12315;DHT22;23886;46.614;14.276;2022-08-21T06:36:08;19.20;99.90
12315;DHT22;23886;46.614;14.276;2022-08-21T06:38:35;19.20;99.90
12315;DHT22;23886;46.614;14.276;2022-08-21T06:41:03;19.10;99.90
12315;DHT22;23886;46.614;14.276;2022-08-21T06:43:30;19.00;99.90
12315;DHT22;23886;46.614;14.276;2022-08-21T06:45:58;19.10;99.90
12315;DHT22;23886;46.614;14.276;2022-08-21T06:48:25;19.00;99.90
12315;DHT22;23886;46.614;14.276;2022-08-21T06:50:52;19.10;99.90
12315;DHT22;23886;46.614;14.276;2022-08-21T06:53:21;19.10;99.90
12315;DHT22;23886;46.614;14.276;2022-08-21T06:55:48;19.20;99.90
12315;DHT22;23886;46.614;14.276;2022-08-21T06:58:16;19.10;99.90
12315;DHT22;23886;46.614;14.276;2022-08-21T07:00:46;19.30;99.90
12315;DHT22;23886;46.614;14.276;2022-08-21T07:03:21;19.30;99.90
12315;DHT22;23886;46.614;14.276;2022-08-21T07:05:48;19.50;99.90
12315;DHT22;23886;46.614;14.276;2022-08-21T07:08:15;19.60;99.90
12315;DHT22;23886;46.614;14.276;2022-08-21T07:10:43;19.60;99.90
12315;DHT22;23886;46.614;14.276;2022-08-21T07:13:10;19.60;99.90
12315;DHT22;23886;46.614;14.276;2022-08-21T07:15:37;19.60;99.90
12315;DHT22;23886;46.614;14.276;2022-08-21T07:18:05;19.70;99.90
12315;DHT22;23886;46.614;14.276;2022-08-21T07:20:34;19.70;99.90
12315;DHT22;23886;46.614;14.276;2022-08-21T07:23:03;19.50;99.90
12315;DHT22;23886;46.614;14.276;2022-08-21T07:25:31;19.80;99.90
12315;DHT22;23886;46.614;14.276;2022-08-21T07:27:58;19.70;99.90
12315;DHT22;23886;46.614;14.276;2022-08-21T07:30:25;19.70;99.90
12315;DHT22;23886;46.614;14.276;2022-08-21T07:32:53;20.00;99.90
12315;DHT22;23886;46.614;14.276;2022-08-21T07:35:20;19.80;99.90
12315;DHT22;23886;46.614;14.276;2022-08-21T07:37:49;19.70;99.90
12315;DHT22;23886;46.614;14.276;2022-08-21T07:40:17;19.50;99.90
12315;DHT22;23886;46.614;14.276;2022-08-21T07:42:46;19.20;99.90
12315;DHT22;23886;46.614;14.276;2022-08-21T07:45:15;19.10;99.90
12315;DHT22;23886;46.614;14.276;2022-08-21T07:47:42;19.00;99.90
12315;DHT22;23886;46.614;14.276;2022-08-21T07:50:11;19.10;99.90
12315;DHT22;23886;46.614;14.276;2022-08-21T07:52:38;19.00;99.90
12315;DHT22;23886;46.614;14.276;2022-08-21T07:55:08;18.90;99.90
12315;DHT22;23886;46.614;14.276;2022-08-21T07:57:36;18.90;99.90
12315;DHT22;23886;46.614;14.276;2022-08-21T08:00:04;18.90;99.90
12315;DHT22;23886;46.614;14.276;2022-08-21T08:02:32;19.00;99.90
12315;DHT22;23886;46.614;14.276;2022-08-21T08:05:00;19.10;99.90
12315;DHT22;23886;46.614;14.276;2022-08-21T08:07:27;19.20;99.90
12315;DHT22;23886;46.614;14.276;2022-08-21T08:09:54;19.10;99.90
12315;DHT22;23886;46.614;14.276;2022-08-21T08:12:22;19.20;99.90
12315;DHT22;23886;46.614;14.276;2022-08-21T08:14:55;19.30;99.90
12315;DHT22;23886;46.614;14.276;2022-08-21T08:17:22;19.30;99.90
12315;DHT22;23886;46.614;14.276;2022-08-21T08:19:49;19.50;99.90
12315;DHT22;23886;46.614;14.276;2022-08-21T08:22:18;19.40;99.90
12315;DHT22;23886;46.614;14.276;2022-08-21T08:24:46;19.40;99.90
12315;DHT22;23886;46.614;14.276;2022-08-21T08:27:13;19.60;99.90
12315;DHT22;23886;46.614;14.276;2022-08-21T08:29:42;19.80;99.90
12315;DHT22;23886;46.614;14.276;2022-08-21T08:32:09;20.00;99.90
12315;DHT22;23886;46.614;14.276;2022-08-21T08:34:37;20.10;99.90
12315;DHT22;23886;46.614;14.276;2022-08-21T08:37:06;20.30;99.90
12315;DHT22;23886;46.614;14.276;2022-08-21T08:39:34;20.20;99.90
12315;DHT22;23886;46.614;14.276;2022-08-21T08:42:06;20.30;99.90
12315;DHT22;23886;46.614;14.276;2022-08-21T08:44:35;20.70;99.90
12315;DHT22;23886;46.614;14.276;2022-08-21T08:47:04;21.00;99.90
12315;DHT22;23886;46.614;14.276;2022-08-21T08:49:37;21.00;99.90
12315;DHT22;23886;46.614;14.276;2022-08-21T08:52:15;20.90;99.90
12315;DHT22;23886;46.614;14.276;2022-08-21T08:54:50;20.80;99.90
12315;DHT22;23886;46.614;14.276;2022-08-21T08:57:20;20.80;99.90
12315;DHT22;23886;46.614;14.276;2022-08-21T08:59:51;20.80;99.90
12315;DHT22;23886;46.614;14.276;2022-08-21T09:02:20;20.70;99.90
12315;DHT22;23886;46.614;14.276;2022-08-21T09:04:50;20.60;99.90
12315;DHT22;23886;46.614;14.276;2022-08-21T09:07:25;20.60;99.90
12315;DHT22;23886;46.614;14.276;2022-08-21T09:10:09;20.60;99.90
12315;DHT22;23886;46.614;14.276;2022-08-21T09:12:49;21.00;99.90
12315;DHT22;23886;46.614;14.276;2022-08-21T09:15:26;21.30;99.90
12315;DHT22;23886;46.614;14.276;2022-08-21T09:18:16;21.70;99.90
12315;DHT22;23886;46.614;14.276;2022-08-21T09:20:55;22.00;99.90
12315;DHT22;23886;46.614;14.276;2022-08-21T09:23:33;22.10;99.90
12315;DHT22;23886;46.614;14.276;2022-08-21T09:26:07;22.40;99.90
12315;DHT22;23886;46.614;14.276;2022-08-21T09:28:35;22.80;99.90
12315;DHT22;23886;46.614;14.276;2022-08-21T09:31:06;23.00;99.90
12315;DHT22;23886;46.614;14.276;2022-08-21T09:33:35;23.10;99.90
12315;DHT22;23886;46.614;14.276;2022-08-21T09:36:02;22.90;99.90
12315;DHT22;23886;46.614;14.276;2022-08-21T09:38:32;22.80;99.90
12315;DHT22;23886;46.614;14.276;2022-08-21T09:41:02;22.90;99.90
12315;DHT22;23886;46.614;14.276;2022-08-21T09:43:30;22.80;99.90
12315;DHT22;23886;46.614;14.276;2022-08-21T09:46:05;22.80;99.90
12315;DHT22;23886;46.614;14.276;2022-08-21T09:48:41;22.80;99.90
12315;DHT22;23886;46.614;14.276;2022-08-21T09:51:11;23.00;99.90
12315;DHT22;23886;46.614;14.276;2022-08-21T09:53:42;22.70;99.90
12315;DHT22;23886;46.614;14.276;2022-08-21T09:56:21;23.00;99.90
12315;DHT22;23886;46.614;14.276;2022-08-21T09:59:19;23.30;99.90
12315;DHT22;23886;46.614;14.276;2022-08-21T10:01:48;23.50;99.90
12315;DHT22;23886;46.614;14.276;2022-08-21T10:04:20;23.90;99.90
12315;DHT22;23886;46.614;14.276;2022-08-21T10:06:48;23.90;99.90
12315;DHT22;23886;46.614;14.276;2022-08-21T10:09:18;23.90;99.90
12315;DHT22;23886;46.614;14.276;2022-08-21T10:11:52;24.20;99.90
12315;DHT22;23886;46.614;14.276;2022-08-21T10:14:32;24.40;99.90
12315;DHT22;23886;46.614;14.276;2022-08-21T10:17:05;24.30;99.90
12315;DHT22;23886;46.614;14.276;2022-08-21T10:19:40;24.10;99.90
12315;DHT22;23886;46.614;14.276;2022-08-21T10:22:19;24.30;97.90
12315;DHT22;23886;46.614;14.276;2022-08-21T10:24:55;24.50;99.00
12315;DHT22;23886;46.614;14.276;2022-08-21T10:27:31;24.40;99.90
12315;DHT22;23886;46.614;14.276;2022-08-21T10:30:06;24.80;98.90
12315;DHT22;23886;46.614;14.276;2022-08-21T10:32:54;25.10;97.30
12315;DHT22;23886;46.614;14.276;2022-08-21T10:35:26;25.30;95.90
12315;DHT22;23886;46.614;14.276;2022-08-21T10:38:09;25.10;96.70
12315;DHT22;23886;46.614;14.276;2022-08-21T10:40:42;25.00;97.00
12315;DHT22;23886;46.614;14.276;2022-08-21T10:43:20;24.90;98.00
12315;DHT22;23886;46.614;14.276;2022-08-21T10:45:57;25.00;97.40
12315;DHT22;23886;46.614;14.276;2022-08-21T10:48:29;24.70;99.10
12315;DHT22;23886;46.614;14.276;2022-08-21T10:51:06;24.70;97.60
12315;DHT22;23886;46.614;14.276;2022-08-21T10:53:56;24.40;98.20
12315;DHT22;23886;46.614;14.276;2022-08-21T10:56:28;24.60;97.80
12315;DHT22;23886;46.614;14.276;2022-08-21T10:59:04;24.50;98.70
12315;DHT22;23886;46.614;14.276;2022-08-21T11:01:42;24.60;98.00
12315;DHT22;23886;46.614;14.276;2022-08-21T11:04:13;24.50;97.80
12315;DHT22;23886;46.614;14.276;2022-08-21T11:06:49;24.70;97.60
12315;DHT22;23886;46.614;14.276;2022-08-21T11:09:22;24.60;99.40
12315;DHT22;23886;46.614;14.276;2022-08-21T11:11:54;24.70;96.60
12315;DHT22;23886;46.614;14.276;2022-08-21T11:14:28;24.90;94.90
12315;DHT22;23886;46.614;14.276;2022-08-21T11:17:02;25.00;96.00
12315;DHT22;23886;46.614;14.276;2022-08-21T11:19:39;25.20;93.70
12315;DHT22;23886;46.614;14.276;2022-08-21T11:22:15;24.90;93.70
12315;DHT22;23886;46.614;14.276;2022-08-21T11:24:47;24.70;96.20
12315;DHT22;23886;46.614;14.276;2022-08-21T11:27:21;25.10;95.60
12315;DHT22;23886;46.614;14.276;2022-08-21T11:29:52;25.10;94.70
12315;DHT22;23886;46.614;14.276;2022-08-21T11:32:52;25.10;95.70
12315;DHT22;23886;46.614;14.276;2022-08-21T11:35:30;25.30;93.30
12315;DHT22;23886;46.614;14.276;2022-08-21T11:38:24;25.10;93.70
12315;DHT22;23886;46.614;14.276;2022-08-21T11:41:05;25.60;94.50
12315;DHT22;23886;46.614;14.276;2022-08-21T11:43:38;25.40;96.50
12315;DHT22;23886;46.614;14.276;2022-08-21T11:46:16;25.50;94.00
12315;DHT22;23886;46.614;14.276;2022-08-21T11:48:51;25.50;92.10
12315;DHT22;23886;46.614;14.276;2022-08-21T11:51:27;25.50;93.50
12315;DHT22;23886;46.614;14.276;2022-08-21T11:54:03;25.30;95.50
12315;DHT22;23886;46.614;14.276;2022-08-21T11:56:35;25.60;92.30
12315;DHT22;23886;46.614;14.276;2022-08-21T11:59:08;25.60;93.00
12315;DHT22;23886;46.614;14.276;2022-08-21T12:01:39;25.60;91.50
12315;DHT22;23886;46.614;14.276;2022-08-21T12:04:10;25.70;92.50
12315;DHT22;23886;46.614;14.276;2022-08-21T12:06:43;26.10;92.60
12315;DHT22;23886;46.614;14.276;2022-08-21T12:09:31;27.10;90.60
12315;DHT22;23886;46.614;14.276;2022-08-21T12:12:03;27.10;89.80
12315;DHT22;23886;46.614;14.276;2022-08-21T12:14:37;27.70;86.10
12315;DHT22;23886;46.614;14.276;2022-08-21T12:17:06;27.20;86.30
12315;DHT22;23886;46.614;14.276;2022-08-21T12:19:33;27.20;84.40
12315;DHT22;23886;46.614;14.276;2022-08-21T12:22:10;27.70;83.60
12315;DHT22;23886;46.614;14.276;2022-08-21T12:24:40;27.80;84.10
12315;DHT22;23886;46.614;14.276;2022-08-21T12:27:21;27.60;85.10
12315;DHT22;23886;46.614;14.276;2022-08-21T12:29:54;27.40;86.90
12315;DHT22;23886;46.614;14.276;2022-08-21T12:32:29;27.80;90.00
12315;DHT22;23886;46.614;14.276;2022-08-21T12:35:02;28.30;86.70
12315;DHT22;23886;46.614;14.276;2022-08-21T12:37:37;28.60;86.10
12315;DHT22;23886;46.614;14.276;2022-08-21T12:40:11;28.40;86.40
12315;DHT22;23886;46.614;14.276;2022-08-21T12:42:43;28.50;87.40
12315;DHT22;23886;46.614;14.276;2022-08-21T12:45:18;28.70;85.40
12315;DHT22;23886;46.614;14.276;2022-08-21T12:47:51;28.60;84.90
12315;DHT22;23886;46.614;14.276;2022-08-21T12:50:26;28.70;85.20
12315;DHT22;23886;46.614;14.276;2022-08-21T12:53:00;28.30;85.10
12315;DHT22;23886;46.614;14.276;2022-08-21T12:55:32;27.80;86.80
12315;DHT22;23886;46.614;14.276;2022-08-21T12:58:00;27.90;86.40
12315;DHT22;23886;46.614;14.276;2022-08-21T13:00:29;27.90;85.30
12315;DHT22;23886;46.614;14.276;2022-08-21T13:02:56;28.00;85.50
12315;DHT22;23886;46.614;14.276;2022-08-21T13:05:29;28.50;85.40
12315;DHT22;23886;46.614;14.276;2022-08-21T13:07:57;28.90;82.20
12315;DHT22;23886;46.614;14.276;2022-08-21T13:10:26;28.70;81.10
12315;DHT22;23886;46.614;14.276;2022-08-21T13:12:57;28.40;82.40
12315;DHT22;23886;46.614;14.276;2022-08-21T13:15:28;28.10;82.70
12315;DHT22;23886;46.614;14.276;2022-08-21T13:17:55;27.60;85.90
12315;DHT22;23886;46.614;14.276;2022-08-21T13:20:29;27.70;86.00
12315;DHT22;23886;46.614;14.276;2022-08-21T13:22:57;28.20;83.70
12315;DHT22;23886;46.614;14.276;2022-08-21T13:25:27;28.20;83.30
12315;DHT22;23886;46.614;14.276;2022-08-21T13:28:00;27.90;85.20
12315;DHT22;23886;46.614;14.276;2022-08-21T13:30:28;28.00;86.10
12315;DHT22;23886;46.614;14.276;2022-08-21T13:32:57;27.70;85.20
12315;DHT22;23886;46.614;14.276;2022-08-21T13:35:28;27.40;86.50
12315;DHT22;23886;46.614;14.276;2022-08-21T13:37:55;27.40;86.00
12315;DHT22;23886;46.614;14.276;2022-08-21T13:40:25;27.30;86.20
12315;DHT22;23886;46.614;14.276;2022-08-21T13:42:53;27.20;85.10
12315;DHT22;23886;46.614;14.276;2022-08-21T13:45:26;27.10;84.40
12315;DHT22;23886;46.614;14.276;2022-08-21T13:47:53;27.10;83.20
12315;DHT22;23886;46.614;14.276;2022-08-21T13:50:22;26.70;87.50
12315;DHT22;23886;46.614;14.276;2022-08-21T13:52:56;26.90;90.80
12315;DHT22;23886;46.614;14.276;2022-08-21T13:55:24;27.60;84.40
12315;DHT22;23886;46.614;14.276;2022-08-21T13:58:02;28.20;83.30
12315;DHT22;23886;46.614;14.276;2022-08-21T14:00:33;28.60;81.00
12315;DHT22;23886;46.614;14.276;2022-08-21T14:03:05;29.40;83.20
12315;DHT22;23886;46.614;14.276;2022-08-21T14:05:35;30.50;78.40
12315;DHT22;23886;46.614;14.276;2022-08-21T14:08:06;30.70;76.90
12315;DHT22;23886;46.614;14.276;2022-08-21T14:10:36;30.40;76.00
12315;DHT22;23886;46.614;14.276;2022-08-21T14:13:07;29.60;76.80
12315;DHT22;23886;46.614;14.276;2022-08-21T14:15:35;29.00;78.30
12315;DHT22;23886;46.614;14.276;2022-08-21T14:18:09;28.60;80.20
12315;DHT22;23886;46.614;14.276;2022-08-21T14:20:39;27.60;82.90
12315;DHT22;23886;46.614;14.276;2022-08-21T14:23:06;28.40;82.60
12315;DHT22;23886;46.614;14.276;2022-08-21T14:25:39;30.20;77.40
12315;DHT22;23886;46.614;14.276;2022-08-21T14:28:15;32.30;70.70
12315;DHT22;23886;46.614;14.276;2022-08-21T14:30:47;32.00;68.10
12315;DHT22;23886;46.614;14.276;2022-08-21T14:33:20;31.60;69.80
12315;DHT22;23886;46.614;14.276;2022-08-21T14:35:48;31.20;70.00
12315;DHT22;23886;46.614;14.276;2022-08-21T14:38:17;31.40;71.60
12315;DHT22;23886;46.614;14.276;2022-08-21T14:40:47;32.00;69.80
12315;DHT22;23886;46.614;14.276;2022-08-21T14:43:15;32.00;69.10
12315;DHT22;23886;46.614;14.276;2022-08-21T14:45:42;31.70;69.70
12315;DHT22;23886;46.614;14.276;2022-08-21T14:48:11;30.70;72.40
12315;DHT22;23886;46.614;14.276;2022-08-21T14:50:38;30.50;71.80
12315;DHT22;23886;46.614;14.276;2022-08-21T14:53:07;31.00;71.90
12315;DHT22;23886;46.614;14.276;2022-08-21T14:55:34;31.90;71.70
12315;DHT22;23886;46.614;14.276;2022-08-21T14:58:21;33.30;69.20
12315;DHT22;23886;46.614;14.276;2022-08-21T15:00:50;34.70;65.20
12315;DHT22;23886;46.614;14.276;2022-08-21T15:03:19;35.60;62.60
12315;DHT22;23886;46.614;14.276;2022-08-21T15:05:47;35.10;61.30
12315;DHT22;23886;46.614;14.276;2022-08-21T15:08:15;35.80;60.00
12315;DHT22;23886;46.614;14.276;2022-08-21T15:10:43;35.60;59.40
12315;DHT22;23886;46.614;14.276;2022-08-21T15:13:10;36.00;58.90
12315;DHT22;23886;46.614;14.276;2022-08-21T15:15:40;35.40;59.70
12315;DHT22;23886;46.614;14.276;2022-08-21T15:18:07;35.80;59.20
12315;DHT22;23886;46.614;14.276;2022-08-21T15:20:37;36.60;57.80
12315;DHT22;23886;46.614;14.276;2022-08-21T15:23:05;35.50;58.20
12315;DHT22;23886;46.614;14.276;2022-08-21T15:25:33;35.80;58.90
12315;DHT22;23886;46.614;14.276;2022-08-21T15:28:00;36.00;58.60
12315;DHT22;23886;46.614;14.276;2022-08-21T15:30:29;36.30;58.10
12315;DHT22;23886;46.614;14.276;2022-08-21T15:32:56;35.80;58.40